sensor_id;sensor_type;location;lat;lon;timestamp;P1;durP1;ratioP1;P2;durP2;ratioP2
56770;SDS011;42641;59.794;17.616;2024-01-11T00:01:14;1.03;;;0.53;;
56770;SDS011;42641;59.794;17.616;2024-01-11T00:03:40;0.30;;;0.20;;
56770;SDS011;42641;59.794;17.616;2024-01-11T00:06:06;0.97;;;0.40;;
56770;SDS011;42641;59.794;17.616;2024-01-11T00:08:33;0.30;;;0.30;;
56770;SDS011;42641;59.794;17.616;2024-01-11T00:10:59;0.67;;;0.30;;
56770;SDS011;42641;59.794;17.616;2024-01-11T00:13:26;0.90;;;0.43;;
56770;SDS011;42641;59.794;17.616;2024-01-11T00:15:53;0.97;;;0.50;;
56770;SDS011;42641;59.794;17.616;2024-01-11T00:18:19;0.57;;;0.47;;
56770;SDS011;42641;59.794;17.616;2024-01-11T00:20:46;0.67;;;0.37;;
56770;SDS011;42641;59.794;17.616;2024-01-11T00:23:12;0.40;;;0.40;;
56770;SDS011;42641;59.794;17.616;2024-01-11T00:25:39;0.53;;;0.40;;
56770;SDS011;42641;59.794;17.616;2024-01-11T00:28:05;0.30;;;0.30;;
56770;SDS011;42641;59.794;17.616;2024-01-11T00:30:31;2.00;;;0.33;;
56770;SDS011;42641;59.794;17.616;2024-01-11T00:32:58;1.20;;;0.50;;
56770;SDS011;42641;59.794;17.616;2024-01-11T00:35:24;1.10;;;0.40;;
56770;SDS011;42641;59.794;17.616;2024-01-11T00:37:51;0.60;;;0.30;;
56770;SDS011;42641;59.794;17.616;2024-01-11T00:40:18;0.20;;;0.20;;
56770;SDS011;42641;59.794;17.616;2024-01-11T00:42:44;0.20;;;0.20;;
56770;SDS011;42641;59.794;17.616;2024-01-11T00:45:11;0.93;;;0.33;;
56770;SDS011;42641;59.794;17.616;2024-01-11T00:47:37;0.30;;;0.30;;
56770;SDS011;42641;59.794;17.616;2024-01-11T00:50:04;0.30;;;0.30;;
56770;SDS011;42641;59.794;17.616;2024-01-11T00:52:31;0.90;;;0.50;;
56770;SDS011;42641;59.794;17.616;2024-01-11T00:54:57;0.30;;;0.30;;
56770;SDS011;42641;59.794;17.616;2024-01-11T00:57:24;0.53;;;0.30;;
56770;SDS011;42641;59.794;17.616;2024-01-11T00:59:50;1.00;;;0.47;;
56770;SDS011;42641;59.794;17.616;2024-01-11T01:02:16;0.67;;;0.20;;
56770;SDS011;42641;59.794;17.616;2024-01-11T01:04:45;0.73;;;0.30;;
56770;SDS011;42641;59.794;17.616;2024-01-11T01:07:11;0.33;;;0.30;;
56770;SDS011;42641;59.794;17.616;2024-01-11T01:09:38;0.30;;;0.30;;
56770;SDS011;42641;59.794;17.616;2024-01-11T01:12:04;2.33;;;0.40;;
56770;SDS011;42641;59.794;17.616;2024-01-11T01:14:32;0.20;;;0.20;;
56770;SDS011;42641;59.794;17.616;2024-01-11T01:16:58;0.37;;;0.30;;
56770;SDS011;42641;59.794;17.616;2024-01-11T01:19:25;0.93;;;0.40;;
56770;SDS011;42641;59.794;17.616;2024-01-11T01:21:51;0.63;;;0.30;;
56770;SDS011;42641;59.794;17.616;2024-01-11T01:24:18;1.80;;;0.40;;
56770;SDS011;42641;59.794;17.616;2024-01-11T01:26:44;1.40;;;0.50;;
56770;SDS011;42641;59.794;17.616;2024-01-11T01:29:11;0.93;;;0.40;;
56770;SDS011;42641;59.794;17.616;2024-01-11T01:31:37;0.33;;;0.30;;
56770;SDS011;42641;59.794;17.616;2024-01-11T01:34:04;0.43;;;0.43;;
56770;SDS011;42641;59.794;17.616;2024-01-11T01:36:32;0.30;;;0.30;;
56770;SDS011;42641;59.794;17.616;2024-01-11T01:38:59;0.57;;;0.37;;
56770;SDS011;42641;59.794;17.616;2024-01-11T01:41:25;1.27;;;0.40;;
56770;SDS011;42641;59.794;17.616;2024-01-11T01:43:52;0.77;;;0.43;;
56770;SDS011;42641;59.794;17.616;2024-01-11T01:46:19;0.67;;;0.10;;
56770;SDS011;42641;59.794;17.616;2024-01-11T01:48:49;0.93;;;0.20;;
56770;SDS011;42641;59.794;17.616;2024-01-11T01:51:17;0.20;;;0.20;;
56770;SDS011;42641;59.794;17.616;2024-01-11T01:53:44;0.50;;;0.30;;
56770;SDS011;42641;59.794;17.616;2024-01-11T01:56:11;0.73;;;0.30;;
56770;SDS011;42641;59.794;17.616;2024-01-11T01:58:38;0.67;;;0.20;;
56770;SDS011;42641;59.794;17.616;2024-01-11T02:01:05;0.37;;;0.33;;
56770;SDS011;42641;59.794;17.616;2024-01-11T02:03:31;0.33;;;0.33;;
56770;SDS011;42641;59.794;17.616;2024-01-11T02:05:58;0.87;;;0.40;;
56770;SDS011;42641;59.794;17.616;2024-01-11T02:08:25;0.97;;;0.30;;
56770;SDS011;42641;59.794;17.616;2024-01-11T02:10:53;0.83;;;0.20;;
56770;SDS011;42641;59.794;17.616;2024-01-11T02:13:19;0.60;;;0.40;;
56770;SDS011;42641;59.794;17.616;2024-01-11T02:15:46;0.53;;;0.20;;
56770;SDS011;42641;59.794;17.616;2024-01-11T02:18:13;0.87;;;0.37;;
56770;SDS011;42641;59.794;17.616;2024-01-11T02:20:39;0.77;;;0.33;;
56770;SDS011;42641;59.794;17.616;2024-01-11T02:23:07;0.30;;;0.27;;
56770;SDS011;42641;59.794;17.616;2024-01-11T02:25:38;0.40;;;0.40;;
56770;SDS011;42641;59.794;17.616;2024-01-11T02:28:04;0.17;;;0.17;;
56770;SDS011;42641;59.794;17.616;2024-01-11T02:30:30;1.40;;;0.40;;
56770;SDS011;42641;59.794;17.616;2024-01-11T02:32:57;0.23;;;0.20;;
56770;SDS011;42641;59.794;17.616;2024-01-11T02:35:23;0.70;;;0.20;;
56770;SDS011;42641;59.794;17.616;2024-01-11T02:37:51;0.83;;;0.30;;
56770;SDS011;42641;59.794;17.616;2024-01-11T02:40:17;0.30;;;0.30;;
56770;SDS011;42641;59.794;17.616;2024-01-11T02:42:45;0.27;;;0.20;;
56770;SDS011;42641;59.794;17.616;2024-01-11T02:45:11;0.20;;;0.20;;
56770;SDS011;42641;59.794;17.616;2024-01-11T02:47:38;2.00;;;0.20;;
56770;SDS011;42641;59.794;17.616;2024-01-11T02:50:05;0.37;;;0.20;;
56770;SDS011;42641;59.794;17.616;2024-01-11T02:52:33;0.10;;;0.10;;
56770;SDS011;42641;59.794;17.616;2024-01-11T02:55:00;1.07;;;0.40;;
56770;SDS011;42641;59.794;17.616;2024-01-11T02:57:26;0.37;;;0.20;;
56770;SDS011;42641;59.794;17.616;2024-01-11T02:59:53;1.90;;;0.30;;
56770;SDS011;42641;59.794;17.616;2024-01-11T03:02:19;0.43;;;0.40;;
56770;SDS011;42641;59.794;17.616;2024-01-11T03:04:45;0.40;;;0.10;;
56770;SDS011;42641;59.794;17.616;2024-01-11T03:07:12;1.37;;;0.50;;
56770;SDS011;42641;59.794;17.616;2024-01-11T03:09:39;0.50;;;0.30;;
56770;SDS011;42641;59.794;17.616;2024-01-11T03:12:06;1.17;;;0.20;;
56770;SDS011;42641;59.794;17.616;2024-01-11T03:14:32;0.93;;;0.30;;
56770;SDS011;42641;59.794;17.616;2024-01-11T03:16:59;0.13;;;0.13;;
56770;SDS011;42641;59.794;17.616;2024-01-11T03:19:26;0.20;;;0.20;;
56770;SDS011;42641;59.794;17.616;2024-01-11T03:21:53;0.17;;;0.17;;
56770;SDS011;42641;59.794;17.616;2024-01-11T03:24:19;0.97;;;0.40;;
56770;SDS011;42641;59.794;17.616;2024-01-11T03:26:47;0.43;;;0.20;;
56770;SDS011;42641;59.794;17.616;2024-01-11T03:29:14;0.20;;;0.20;;
56770;SDS011;42641;59.794;17.616;2024-01-11T03:31:40;0.30;;;0.30;;
56770;SDS011;42641;59.794;17.616;2024-01-11T03:34:08;1.20;;;0.30;;
56770;SDS011;42641;59.794;17.616;2024-01-11T03:36:34;0.30;;;0.30;;
56770;SDS011;42641;59.794;17.616;2024-01-11T03:39:01;0.43;;;0.30;;
56770;SDS011;42641;59.794;17.616;2024-01-11T03:41:27;0.23;;;0.23;;
56770;SDS011;42641;59.794;17.616;2024-01-11T03:43:54;1.87;;;0.30;;
56770;SDS011;42641;59.794;17.616;2024-01-11T03:46:20;0.83;;;0.37;;
56770;SDS011;42641;59.794;17.616;2024-01-11T03:48:47;0.30;;;0.30;;
56770;SDS011;42641;59.794;17.616;2024-01-11T03:51:13;0.27;;;0.27;;
56770;SDS011;42641;59.794;17.616;2024-01-11T03:53:40;0.17;;;0.10;;
56770;SDS011;42641;59.794;17.616;2024-01-11T03:56:06;0.10;;;0.10;;
56770;SDS011;42641;59.794;17.616;2024-01-11T03:58:33;0.10;;;0.10;;
56770;SDS011;42641;59.794;17.616;2024-01-11T04:01:01;0.37;;;0.10;;
56770;SDS011;42641;59.794;17.616;2024-01-11T04:03:27;0.40;;;0.20;;
56770;SDS011;42641;59.794;17.616;2024-01-11T04:05:54;1.03;;;0.20;;
56770;SDS011;42641;59.794;17.616;2024-01-11T04:08:20;0.20;;;0.20;;
56770;SDS011;42641;59.794;17.616;2024-01-11T04:10:47;0.53;;;0.30;;
56770;SDS011;42641;59.794;17.616;2024-01-11T04:13:13;0.20;;;0.20;;
56770;SDS011;42641;59.794;17.616;2024-01-11T04:15:40;0.93;;;0.23;;
56770;SDS011;42641;59.794;17.616;2024-01-11T04:18:06;0.57;;;0.40;;
56770;SDS011;42641;59.794;17.616;2024-01-11T04:20:32;0.20;;;0.20;;
56770;SDS011;42641;59.794;17.616;2024-01-11T04:22:59;0.13;;;0.13;;
56770;SDS011;42641;59.794;17.616;2024-01-11T04:25:25;0.77;;;0.30;;
56770;SDS011;42641;59.794;17.616;2024-01-11T04:27:52;0.60;;;0.40;;
56770;SDS011;42641;59.794;17.616;2024-01-11T04:30:19;0.60;;;0.30;;
56770;SDS011;42641;59.794;17.616;2024-01-11T04:32:45;0.20;;;0.20;;
56770;SDS011;42641;59.794;17.616;2024-01-11T04:35:12;0.10;;;0.10;;
56770;SDS011;42641;59.794;17.616;2024-01-11T04:37:38;0.20;;;0.20;;
56770;SDS011;42641;59.794;17.616;2024-01-11T04:40:06;0.43;;;0.27;;
56770;SDS011;42641;59.794;17.616;2024-01-11T04:42:33;0.33;;;0.20;;
56770;SDS011;42641;59.794;17.616;2024-01-11T04:44:59;0.20;;;0.20;;
56770;SDS011;42641;59.794;17.616;2024-01-11T04:47:25;1.07;;;0.30;;
56770;SDS011;42641;59.794;17.616;2024-01-11T04:49:52;0.33;;;0.30;;
56770;SDS011;42641;59.794;17.616;2024-01-11T04:52:18;0.20;;;0.20;;
56770;SDS011;42641;59.794;17.616;2024-01-11T04:54:45;0.57;;;0.40;;
56770;SDS011;42641;59.794;17.616;2024-01-11T04:57:11;0.60;;;0.30;;
56770;SDS011;42641;59.794;17.616;2024-01-11T04:59:38;0.20;;;0.20;;
56770;SDS011;42641;59.794;17.616;2024-01-11T05:02:04;0.50;;;0.23;;
56770;SDS011;42641;59.794;17.616;2024-01-11T05:04:30;0.30;;;0.30;;
56770;SDS011;42641;59.794;17.616;2024-01-11T05:06:57;0.30;;;0.20;;
56770;SDS011;42641;59.794;17.616;2024-01-11T05:09:23;0.20;;;0.20;;
56770;SDS011;42641;59.794;17.616;2024-01-11T05:11:49;0.30;;;0.20;;
56770;SDS011;42641;59.794;17.616;2024-01-11T05:14:16;1.03;;;0.30;;
56770;SDS011;42641;59.794;17.616;2024-01-11T05:16:42;0.70;;;0.30;;
56770;SDS011;42641;59.794;17.616;2024-01-11T05:19:09;0.10;;;0.10;;
56770;SDS011;42641;59.794;17.616;2024-01-11T05:21:35;0.23;;;0.23;;
56770;SDS011;42641;59.794;17.616;2024-01-11T05:24:02;0.43;;;0.30;;
56770;SDS011;42641;59.794;17.616;2024-01-11T05:26:28;0.20;;;0.20;;
56770;SDS011;42641;59.794;17.616;2024-01-11T05:28:54;0.30;;;0.27;;
56770;SDS011;42641;59.794;17.616;2024-01-11T05:31:21;0.23;;;0.20;;
56770;SDS011;42641;59.794;17.616;2024-01-11T05:33:47;0.20;;;0.20;;
56770;SDS011;42641;59.794;17.616;2024-01-11T05:36:14;0.60;;;0.27;;
56770;SDS011;42641;59.794;17.616;2024-01-11T05:38:40;0.30;;;0.30;;
56770;SDS011;42641;59.794;17.616;2024-01-11T05:41:07;0.20;;;0.20;;
56770;SDS011;42641;59.794;17.616;2024-01-11T05:43:34;0.77;;;0.43;;
56770;SDS011;42641;59.794;17.616;2024-01-11T05:46:00;0.57;;;0.57;;
56770;SDS011;42641;59.794;17.616;2024-01-11T05:48:27;0.73;;;0.30;;
56770;SDS011;42641;59.794;17.616;2024-01-11T05:50:54;0.60;;;0.40;;
56770;SDS011;42641;59.794;17.616;2024-01-11T05:53:20;0.20;;;0.20;;
56770;SDS011;42641;59.794;17.616;2024-01-11T05:55:47;0.57;;;0.23;;
56770;SDS011;42641;59.794;17.616;2024-01-11T05:58:13;0.50;;;0.40;;
56770;SDS011;42641;59.794;17.616;2024-01-11T06:00:40;0.30;;;0.30;;
56770;SDS011;42641;59.794;17.616;2024-01-11T06:03:07;0.57;;;0.43;;
56770;SDS011;42641;59.794;17.616;2024-01-11T06:05:34;3.30;;;0.50;;
56770;SDS011;42641;59.794;17.616;2024-01-11T06:08:00;0.67;;;0.40;;
56770;SDS011;42641;59.794;17.616;2024-01-11T06:10:27;0.30;;;0.30;;
56770;SDS011;42641;59.794;17.616;2024-01-11T06:12:53;0.57;;;0.37;;
56770;SDS011;42641;59.794;17.616;2024-01-11T06:15:22;1.50;;;0.37;;
56770;SDS011;42641;59.794;17.616;2024-01-11T06:17:48;2.23;;;0.57;;
56770;SDS011;42641;59.794;17.616;2024-01-11T06:20:15;0.40;;;0.20;;
56770;SDS011;42641;59.794;17.616;2024-01-11T06:22:41;0.40;;;0.40;;
56770;SDS011;42641;59.794;17.616;2024-01-11T06:25:08;0.70;;;0.70;;
56770;SDS011;42641;59.794;17.616;2024-01-11T06:27:34;0.93;;;0.50;;
56770;SDS011;42641;59.794;17.616;2024-01-11T06:30:01;0.43;;;0.40;;
56770;SDS011;42641;59.794;17.616;2024-01-11T06:32:28;0.40;;;0.37;;
56770;SDS011;42641;59.794;17.616;2024-01-11T06:34:54;2.40;;;1.20;;
56770;SDS011;42641;59.794;17.616;2024-01-11T06:37:20;0.40;;;0.40;;
56770;SDS011;42641;59.794;17.616;2024-01-11T06:39:49;0.63;;;0.40;;
56770;SDS011;42641;59.794;17.616;2024-01-11T06:42:16;1.50;;;0.90;;
56770;SDS011;42641;59.794;17.616;2024-01-11T06:44:42;0.83;;;0.40;;
56770;SDS011;42641;59.794;17.616;2024-01-11T06:47:08;0.50;;;0.50;;
56770;SDS011;42641;59.794;17.616;2024-01-11T06:49:37;2.43;;;0.83;;
56770;SDS011;42641;59.794;17.616;2024-01-11T06:52:05;0.63;;;0.30;;
56770;SDS011;42641;59.794;17.616;2024-01-11T06:54:32;0.60;;;0.60;;
56770;SDS011;42641;59.794;17.616;2024-01-11T06:56:58;0.50;;;0.50;;
56770;SDS011;42641;59.794;17.616;2024-01-11T06:59:25;0.70;;;0.37;;
56770;SDS011;42641;59.794;17.616;2024-01-11T07:01:51;0.53;;;0.40;;
56770;SDS011;42641;59.794;17.616;2024-01-11T07:04:17;1.23;;;0.60;;
56770;SDS011;42641;59.794;17.616;2024-01-11T07:06:44;1.80;;;0.70;;
56770;SDS011;42641;59.794;17.616;2024-01-11T07:09:10;0.73;;;0.50;;
56770;SDS011;42641;59.794;17.616;2024-01-11T07:11:37;1.57;;;0.70;;
56770;SDS011;42641;59.794;17.616;2024-01-11T07:14:03;1.97;;;0.70;;
56770;SDS011;42641;59.794;17.616;2024-01-11T07:16:30;0.93;;;0.40;;
56770;SDS011;42641;59.794;17.616;2024-01-11T07:18:56;0.97;;;0.70;;
56770;SDS011;42641;59.794;17.616;2024-01-11T07:21:23;0.60;;;0.50;;
56770;SDS011;42641;59.794;17.616;2024-01-11T07:24:00;0.37;;;0.33;;
56770;SDS011;42641;59.794;17.616;2024-01-11T07:26:26;3.20;;;0.60;;
56770;SDS011;42641;59.794;17.616;2024-01-11T07:28:53;2.33;;;0.73;;
56770;SDS011;42641;59.794;17.616;2024-01-11T07:31:23;0.70;;;0.43;;
56770;SDS011;42641;59.794;17.616;2024-01-11T07:33:49;2.17;;;0.57;;
56770;SDS011;42641;59.794;17.616;2024-01-11T07:36:16;1.30;;;0.50;;
56770;SDS011;42641;59.794;17.616;2024-01-11T07:38:42;0.43;;;0.43;;
56770;SDS011;42641;59.794;17.616;2024-01-11T07:41:10;0.93;;;0.50;;
56770;SDS011;42641;59.794;17.616;2024-01-11T07:43:37;1.10;;;0.50;;
56770;SDS011;42641;59.794;17.616;2024-01-11T07:46:04;1.27;;;0.70;;
56770;SDS011;42641;59.794;17.616;2024-01-11T07:48:33;0.90;;;0.50;;
56770;SDS011;42641;59.794;17.616;2024-01-11T07:50:59;0.83;;;0.83;;
56770;SDS011;42641;59.794;17.616;2024-01-11T07:53:26;2.23;;;0.90;;
56770;SDS011;42641;59.794;17.616;2024-01-11T07:55:52;0.70;;;0.70;;
56770;SDS011;42641;59.794;17.616;2024-01-11T07:58:19;0.83;;;0.63;;
56770;SDS011;42641;59.794;17.616;2024-01-11T08:00:47;1.63;;;0.80;;
56770;SDS011;42641;59.794;17.616;2024-01-11T08:03:14;0.77;;;0.60;;
56770;SDS011;42641;59.794;17.616;2024-01-11T08:05:41;4.70;;;1.13;;
56770;SDS011;42641;59.794;17.616;2024-01-11T08:08:08;1.80;;;1.10;;
56770;SDS011;42641;59.794;17.616;2024-01-11T08:10:35;1.70;;;1.07;;
56770;SDS011;42641;59.794;17.616;2024-01-11T08:13:01;2.20;;;1.30;;
56770;SDS011;42641;59.794;17.616;2024-01-11T08:15:28;1.43;;;1.00;;
56770;SDS011;42641;59.794;17.616;2024-01-11T08:17:55;1.03;;;1.00;;
56770;SDS011;42641;59.794;17.616;2024-01-11T08:20:21;1.07;;;0.60;;
56770;SDS011;42641;59.794;17.616;2024-01-11T08:22:48;0.87;;;0.60;;
56770;SDS011;42641;59.794;17.616;2024-01-11T08:25:14;1.33;;;0.80;;
56770;SDS011;42641;59.794;17.616;2024-01-11T08:27:41;0.80;;;0.70;;
56770;SDS011;42641;59.794;17.616;2024-01-11T08:30:07;1.60;;;0.70;;
56770;SDS011;42641;59.794;17.616;2024-01-11T08:32:34;0.60;;;0.60;;
56770;SDS011;42641;59.794;17.616;2024-01-11T08:35:05;3.07;;;0.90;;
56770;SDS011;42641;59.794;17.616;2024-01-11T08:37:32;0.40;;;0.40;;
56770;SDS011;42641;59.794;17.616;2024-01-11T08:39:59;0.60;;;0.60;;
56770;SDS011;42641;59.794;17.616;2024-01-11T08:42:25;0.67;;;0.50;;
56770;SDS011;42641;59.794;17.616;2024-01-11T08:44:52;3.30;;;0.70;;
56770;SDS011;42641;59.794;17.616;2024-01-11T08:47:18;0.97;;;0.60;;
56770;SDS011;42641;59.794;17.616;2024-01-11T08:49:44;1.37;;;0.70;;
56770;SDS011;42641;59.794;17.616;2024-01-11T08:52:11;0.77;;;0.77;;
56770;SDS011;42641;59.794;17.616;2024-01-11T08:54:37;2.03;;;0.80;;
56770;SDS011;42641;59.794;17.616;2024-01-11T08:57:04;2.33;;;0.70;;
56770;SDS011;42641;59.794;17.616;2024-01-11T08:59:30;1.87;;;0.90;;
56770;SDS011;42641;59.794;17.616;2024-01-11T09:01:59;0.87;;;0.73;;
56770;SDS011;42641;59.794;17.616;2024-01-11T09:04:26;0.93;;;0.80;;
56770;SDS011;42641;59.794;17.616;2024-01-11T09:06:55;1.90;;;1.10;;
56770;SDS011;42641;59.794;17.616;2024-01-11T09:09:21;2.17;;;0.90;;
56770;SDS011;42641;59.794;17.616;2024-01-11T09:11:48;1.30;;;0.70;;
56770;SDS011;42641;59.794;17.616;2024-01-11T09:14:15;1.70;;;0.87;;
56770;SDS011;42641;59.794;17.616;2024-01-11T09:16:42;3.37;;;0.60;;
56770;SDS011;42641;59.794;17.616;2024-01-11T09:19:10;0.90;;;0.47;;
56770;SDS011;42641;59.794;17.616;2024-01-11T09:21:36;2.00;;;0.80;;
56770;SDS011;42641;59.794;17.616;2024-01-11T09:24:03;1.33;;;0.83;;
56770;SDS011;42641;59.794;17.616;2024-01-11T09:26:30;2.57;;;1.07;;
56770;SDS011;42641;59.794;17.616;2024-01-11T09:28:56;0.83;;;0.50;;
56770;SDS011;42641;59.794;17.616;2024-01-11T09:31:23;1.17;;;0.50;;
56770;SDS011;42641;59.794;17.616;2024-01-11T09:33:49;2.97;;;0.60;;
56770;SDS011;42641;59.794;17.616;2024-01-11T09:36:16;0.63;;;0.63;;
56770;SDS011;42641;59.794;17.616;2024-01-11T09:38:42;2.03;;;0.60;;
56770;SDS011;42641;59.794;17.616;2024-01-11T09:41:11;2.27;;;0.70;;
56770;SDS011;42641;59.794;17.616;2024-01-11T09:43:40;1.10;;;0.67;;
56770;SDS011;42641;59.794;17.616;2024-01-11T09:46:07;1.50;;;0.40;;
56770;SDS011;42641;59.794;17.616;2024-01-11T09:48:40;2.43;;;0.60;;
56770;SDS011;42641;59.794;17.616;2024-01-11T09:51:11;1.00;;;0.50;;
56770;SDS011;42641;59.794;17.616;2024-01-11T09:53:38;3.03;;;0.63;;
56770;SDS011;42641;59.794;17.616;2024-01-11T09:56:08;1.20;;;0.73;;
56770;SDS011;42641;59.794;17.616;2024-01-11T09:58:35;0.57;;;0.40;;
56770;SDS011;42641;59.794;17.616;2024-01-11T10:01:02;2.73;;;0.70;;
56770;SDS011;42641;59.794;17.616;2024-01-11T10:03:34;0.73;;;0.53;;
56770;SDS011;42641;59.794;17.616;2024-01-11T10:06:01;2.30;;;0.50;;
56770;SDS011;42641;59.794;17.616;2024-01-11T10:08:29;1.20;;;0.53;;
56770;SDS011;42641;59.794;17.616;2024-01-11T10:10:57;2.67;;;0.77;;
56770;SDS011;42641;59.794;17.616;2024-01-11T10:13:27;0.73;;;0.53;;
56770;SDS011;42641;59.794;17.616;2024-01-11T10:16:11;0.60;;;0.50;;
56770;SDS011;42641;59.794;17.616;2024-01-11T10:18:39;2.63;;;0.37;;
56770;SDS011;42641;59.794;17.616;2024-01-11T10:21:05;2.77;;;0.70;;
56770;SDS011;42641;59.794;17.616;2024-01-11T10:23:38;1.03;;;0.50;;
56770;SDS011;42641;59.794;17.616;2024-01-11T10:26:05;1.43;;;0.63;;
56770;SDS011;42641;59.794;17.616;2024-01-11T10:28:33;1.90;;;0.77;;
56770;SDS011;42641;59.794;17.616;2024-01-11T10:31:03;1.83;;;0.50;;
56770;SDS011;42641;59.794;17.616;2024-01-11T10:33:33;2.10;;;0.60;;
56770;SDS011;42641;59.794;17.616;2024-01-11T10:36:00;1.97;;;0.83;;
56770;SDS011;42641;59.794;17.616;2024-01-11T10:38:27;1.83;;;0.70;;
56770;SDS011;42641;59.794;17.616;2024-01-11T10:40:59;0.80;;;0.43;;
56770;SDS011;42641;59.794;17.616;2024-01-11T10:43:26;1.20;;;0.63;;
56770;SDS011;42641;59.794;17.616;2024-01-11T10:45:55;2.27;;;0.60;;
56770;SDS011;42641;59.794;17.616;2024-01-11T10:48:26;1.13;;;0.50;;
56770;SDS011;42641;59.794;17.616;2024-01-11T10:50:58;1.60;;;0.67;;
56770;SDS011;42641;59.794;17.616;2024-01-11T10:56:08;0.53;;;0.50;;
56770;SDS011;42641;59.794;17.616;2024-01-11T10:58:39;3.70;;;0.90;;
56770;SDS011;42641;59.794;17.616;2024-01-11T11:01:07;0.73;;;0.43;;
56770;SDS011;42641;59.794;17.616;2024-01-11T11:03:36;1.13;;;0.60;;
56770;SDS011;42641;59.794;17.616;2024-01-11T11:06:05;0.77;;;0.60;;
56770;SDS011;42641;59.794;17.616;2024-01-11T11:08:34;2.03;;;0.73;;
56770;SDS011;42641;59.794;17.616;2024-01-11T11:11:03;0.60;;;0.40;;
56770;SDS011;42641;59.794;17.616;2024-01-11T11:13:34;2.80;;;0.70;;
56770;SDS011;42641;59.794;17.616;2024-01-11T11:16:01;2.47;;;0.60;;
56770;SDS011;42641;59.794;17.616;2024-01-11T11:18:29;1.20;;;0.57;;
56770;SDS011;42641;59.794;17.616;2024-01-11T11:20:57;0.40;;;0.40;;
56770;SDS011;42641;59.794;17.616;2024-01-11T11:23:23;1.80;;;0.70;;
56770;SDS011;42641;59.794;17.616;2024-01-11T11:25:50;0.83;;;0.43;;
56770;SDS011;42641;59.794;17.616;2024-01-11T11:28:21;2.00;;;0.80;;
56770;SDS011;42641;59.794;17.616;2024-01-11T11:30:48;1.70;;;0.67;;
56770;SDS011;42641;59.794;17.616;2024-01-11T11:33:23;0.73;;;0.60;;
56770;SDS011;42641;59.794;17.616;2024-01-11T11:36:12;2.10;;;0.90;;
56770;SDS011;42641;59.794;17.616;2024-01-11T11:38:39;1.57;;;0.40;;
56770;SDS011;42641;59.794;17.616;2024-01-11T11:41:06;2.33;;;0.73;;
56770;SDS011;42641;59.794;17.616;2024-01-11T11:43:33;0.90;;;0.60;;
56770;SDS011;42641;59.794;17.616;2024-01-11T11:46:00;1.10;;;0.57;;
56770;SDS011;42641;59.794;17.616;2024-01-11T11:53:35;1.37;;;0.60;;
56770;SDS011;42641;59.794;17.616;2024-01-11T11:56:02;0.63;;;0.40;;
56770;SDS011;42641;59.794;17.616;2024-01-11T11:58:30;2.83;;;1.00;;
56770;SDS011;42641;59.794;17.616;2024-01-11T12:00:58;0.87;;;0.80;;
56770;SDS011;42641;59.794;17.616;2024-01-11T12:03:29;1.50;;;0.70;;
56770;SDS011;42641;59.794;17.616;2024-01-11T12:05:56;1.63;;;0.60;;
56770;SDS011;42641;59.794;17.616;2024-01-11T12:08:23;1.10;;;0.57;;
56770;SDS011;42641;59.794;17.616;2024-01-11T12:10:51;1.87;;;0.63;;
56770;SDS011;42641;59.794;17.616;2024-01-11T12:13:18;1.73;;;0.70;;
56770;SDS011;42641;59.794;17.616;2024-01-11T12:15:45;1.83;;;0.93;;
56770;SDS011;42641;59.794;17.616;2024-01-11T12:18:12;0.83;;;0.70;;
56770;SDS011;42641;59.794;17.616;2024-01-11T12:20:39;2.07;;;0.87;;
56770;SDS011;42641;59.794;17.616;2024-01-11T12:23:06;1.17;;;0.53;;
56770;SDS011;42641;59.794;17.616;2024-01-11T12:25:33;3.80;;;0.93;;
56770;SDS011;42641;59.794;17.616;2024-01-11T12:28:00;3.00;;;0.60;;
56770;SDS011;42641;59.794;17.616;2024-01-11T12:30:26;3.43;;;1.00;;
56770;SDS011;42641;59.794;17.616;2024-01-11T12:32:53;0.67;;;0.50;;
56770;SDS011;42641;59.794;17.616;2024-01-11T12:35:20;1.40;;;0.40;;
56770;SDS011;42641;59.794;17.616;2024-01-11T12:37:54;0.80;;;0.50;;
56770;SDS011;42641;59.794;17.616;2024-01-11T12:40:21;1.97;;;0.57;;
56770;SDS011;42641;59.794;17.616;2024-01-11T12:42:48;0.80;;;0.70;;
56770;SDS011;42641;59.794;17.616;2024-01-11T12:45:16;0.53;;;0.50;;
56770;SDS011;42641;59.794;17.616;2024-01-11T12:47:43;1.43;;;0.80;;
56770;SDS011;42641;59.794;17.616;2024-01-11T12:50:10;0.90;;;0.70;;
56770;SDS011;42641;59.794;17.616;2024-01-11T12:52:40;0.60;;;0.60;;
56770;SDS011;42641;59.794;17.616;2024-01-11T12:55:08;1.10;;;0.70;;
56770;SDS011;42641;59.794;17.616;2024-01-11T12:57:44;1.27;;;0.60;;
56770;SDS011;42641;59.794;17.616;2024-01-11T13:00:13;2.40;;;0.80;;
56770;SDS011;42641;59.794;17.616;2024-01-11T13:02:42;1.90;;;0.70;;
56770;SDS011;42641;59.794;17.616;2024-01-11T13:05:11;0.80;;;0.80;;
56770;SDS011;42641;59.794;17.616;2024-01-11T13:07:38;1.27;;;0.90;;
56770;SDS011;42641;59.794;17.616;2024-01-11T13:10:04;1.33;;;0.80;;
56770;SDS011;42641;59.794;17.616;2024-01-11T13:12:31;0.70;;;0.70;;
56770;SDS011;42641;59.794;17.616;2024-01-11T13:14:57;0.67;;;0.67;;
56770;SDS011;42641;59.794;17.616;2024-01-11T13:17:24;0.83;;;0.60;;
56770;SDS011;42641;59.794;17.616;2024-01-11T13:19:52;0.73;;;0.73;;
56770;SDS011;42641;59.794;17.616;2024-01-11T13:22:19;1.43;;;0.60;;
56770;SDS011;42641;59.794;17.616;2024-01-11T13:24:45;1.63;;;0.80;;
56770;SDS011;42641;59.794;17.616;2024-01-11T13:27:12;1.00;;;0.60;;
56770;SDS011;42641;59.794;17.616;2024-01-11T13:29:38;2.83;;;0.90;;
56770;SDS011;42641;59.794;17.616;2024-01-11T13:32:04;1.03;;;0.50;;
56770;SDS011;42641;59.794;17.616;2024-01-11T13:34:31;0.60;;;0.60;;
56770;SDS011;42641;59.794;17.616;2024-01-11T13:36:57;1.60;;;1.00;;
56770;SDS011;42641;59.794;17.616;2024-01-11T13:39:25;2.57;;;0.93;;
56770;SDS011;42641;59.794;17.616;2024-01-11T13:41:51;2.17;;;0.77;;
56770;SDS011;42641;59.794;17.616;2024-01-11T13:44:18;0.60;;;0.60;;
56770;SDS011;42641;59.794;17.616;2024-01-11T13:46:44;0.50;;;0.50;;
56770;SDS011;42641;59.794;17.616;2024-01-11T13:49:11;1.63;;;0.80;;
56770;SDS011;42641;59.794;17.616;2024-01-11T13:51:37;0.70;;;0.60;;
56770;SDS011;42641;59.794;17.616;2024-01-11T13:54:04;1.50;;;0.67;;
56770;SDS011;42641;59.794;17.616;2024-01-11T13:56:31;1.83;;;0.70;;
56770;SDS011;42641;59.794;17.616;2024-01-11T13:58:57;3.30;;;0.87;;
56770;SDS011;42641;59.794;17.616;2024-01-11T14:01:24;0.97;;;0.70;;
56770;SDS011;42641;59.794;17.616;2024-01-11T14:03:51;0.67;;;0.47;;
56770;SDS011;42641;59.794;17.616;2024-01-11T14:06:17;0.80;;;0.60;;
56770;SDS011;42641;59.794;17.616;2024-01-11T14:08:43;0.67;;;0.60;;
56770;SDS011;42641;59.794;17.616;2024-01-11T14:11:10;2.67;;;0.70;;
56770;SDS011;42641;59.794;17.616;2024-01-11T14:13:36;1.20;;;0.47;;
56770;SDS011;42641;59.794;17.616;2024-01-11T14:16:03;0.53;;;0.53;;
56770;SDS011;42641;59.794;17.616;2024-01-11T14:18:30;1.10;;;0.60;;
56770;SDS011;42641;59.794;17.616;2024-01-11T14:20:57;0.33;;;0.33;;
56770;SDS011;42641;59.794;17.616;2024-01-11T14:23:23;1.67;;;0.80;;
56770;SDS011;42641;59.794;17.616;2024-01-11T14:25:50;0.63;;;0.50;;
56770;SDS011;42641;59.794;17.616;2024-01-11T14:28:16;2.30;;;0.70;;
56770;SDS011;42641;59.794;17.616;2024-01-11T14:30:43;0.43;;;0.40;;
56770;SDS011;42641;59.794;17.616;2024-01-11T14:33:10;0.90;;;0.50;;
56770;SDS011;42641;59.794;17.616;2024-01-11T14:35:37;0.93;;;0.60;;
56770;SDS011;42641;59.794;17.616;2024-01-11T14:38:03;1.63;;;0.50;;
56770;SDS011;42641;59.794;17.616;2024-01-11T14:40:30;0.57;;;0.57;;